Time;durP1;ratioP1;P1;durP2;ratioP2;P2;SDS_P1;SDS_P2;PMS_P1;PMS_P2;Temp;Humidity;BMP_temperature;BMP_pressure;BME280_temperature;BME280_humidity;BME280_pressure;Samples;Min_cycle;Max_cycle;Signal;HPM_P1;HPM_P2
2023/05/25 00:01:09;;;;;;;12.32;5.28;;;;;;;10.62;100.00;102257.97;6225256;28;20050;-70
2023/05/25 00:04:15;;;;;;;14.75;5.30;;;;;;;10.61;100.00;102257.13;6225687;28;20350;-70
2023/05/25 00:07:17;;;;;;;9.27;4.45;;;;;;;10.68;100.00;102255.19;6225902;28;20045;-71
2023/05/25 00:10:18;;;;;;;12.90;4.57;;;;;;;10.59;100.00;102256.31;6225041;28;20053;-70
2023/05/25 00:13:20;;;;;;;16.50;5.75;;;;;;;10.62;100.00;102250.09;6225766;28;20046;-70
2023/05/25 00:16:22;;;;;;;8.40;3.85;;;;;;;10.50;100.00;102245.22;6222777;28;20137;-70
2023/05/25 00:19:24;;;;;;;7.22;4.50;;;;;;;10.51;100.00;102249.56;6221746;28;20457;-70
2023/05/25 00:22:27;;;;;;;8.90;3.75;;;;;;;10.51;100.00;102247.78;6225300;28;20049;-70
2023/05/25 00:25:29;;;;;;;8.93;3.55;;;;;;;10.46;100.00;102243.59;6225925;28;20115;-70
2023/05/25 00:28:30;;;;;;;15.82;3.65;;;;;;;10.48;100.00;102237.34;6224951;28;20042;-70
2023/05/25 00:31:34;;;;;;;8.60;3.78;;;;;;;10.45;100.00;102240.09;6223046;28;20045;-70
2023/05/25 00:34:36;;;;;;;13.38;3.97;;;;;;;10.42;100.00;102234.91;6223845;28;20053;-71
2023/05/25 00:37:37;;;;;;;11.70;4.05;;;;;;;10.39;100.00;102232.38;6225451;28;20366;-70
2023/05/25 00:40:40;;;;;;;13.68;3.83;;;;;;;10.36;100.00;102240.34;6224951;28;20042;-71
2023/05/25 00:43:42;;;;;;;10.85;3.90;;;;;;;10.27;100.00;102241.47;6225283;28;20132;-71
2023/05/25 00:46:50;;;;;;;9.25;3.72;;;;;;;10.26;100.00;102231.84;6222449;28;20058;-70
2023/05/25 00:49:51;;;;;;;7.90;3.07;;;;;;;10.29;100.00;102236.16;6192825;28;20058;-70
2023/05/25 00:52:54;;;;;;;13.25;4.30;;;;;;;10.21;100.00;102231.09;6204846;28;20046;-70
2023/05/25 00:56:03;;;;;;;10.13;3.72;;;;;;;10.23;100.00;102233.69;6205651;28;20051;-71
2023/05/25 00:59:06;;;;;;;9.02;4.35;;;;;;;10.19;100.00;102232.06;6204969;28;20423;-70
2023/05/25 01:02:10;;;;;;;11.10;4.15;;;;;;;10.11;100.00;102235.75;6205381;28;20462;-70
2023/05/25 01:05:13;;;;;;;11.43;4.90;;;;;;;10.03;100.00;102242.09;6205552;28;20439;-70
2023/05/25 01:08:17;;;;;;;10.95;4.32;;;;;;;10.03;100.00;102247.34;6205495;28;20046;-71
2023/05/25 01:11:21;;;;;;;9.15;4.10;;;;;;;10.01;100.00;102252.66;6204802;28;20050;-71
2023/05/25 01:14:23;;;;;;;11.00;3.85;;;;;;;9.97;100.00;102252.78;6205057;28;20068;-70
2023/05/25 01:17:27;;;;;;;6.72;4.05;;;;;;;9.99;100.00;102262.34;6204531;28;20050;-70
2023/05/25 01:20:29;;;;;;;9.35;3.58;;;;;;;10.01;100.00;102260.53;6212880;28;20046;-71
2023/05/25 01:23:36;;;;;;;14.35;4.65;;;;;;;10.01;100.00;102257.06;6218636;28;20421;-70
2023/05/25 01:26:44;;;;;;;11.90;4.60;;;;;;;9.99;100.00;102254.47;6229280;28;20592;-70
2023/05/25 01:29:47;;;;;;;12.55;4.32;;;;;;;10.08;100.00;102248.97;6224006;28;20049;-70
2023/05/25 01:32:49;;;;;;;10.93;5.40;;;;;;;10.16;100.00;102254.84;6206670;28;20042;-70
2023/05/25 01:35:52;;;;;;;11.35;5.93;;;;;;;10.14;100.00;102261.94;6227210;28;20053;-70
2023/05/25 01:38:55;;;;;;;10.57;5.10;;;;;;;10.14;100.00;102261.06;6203950;28;20375;-70
2023/05/25 01:41:56;;;;;;;19.10;5.18;;;;;;;10.11;100.00;102262.00;6228762;28;20049;-70
2023/05/25 01:44:58;;;;;;;13.05;5.68;;;;;;;10.13;100.00;102264.63;6228986;28;20053;-70
2023/05/25 01:48:11;;;;;;;11.32;4.72;;;;;;;10.23;100.00;102263.44;6225836;28;20090;-70
2023/05/25 01:51:19;;;;;;;14.07;6.28;;;;;;;10.30;100.00;102258.91;6225423;28;20068;-70
2023/05/25 01:54:25;;;;;;;10.85;5.70;;;;;;;10.34;100.00;102257.91;6228489;28;20108;-70
2023/05/25 01:57:29;;;;;;;25.88;6.68;;;;;;;10.34;100.00;102258.78;6228691;28;20056;-70
2023/05/25 02:00:31;;;;;;;13.98;5.43;;;;;;;10.36;100.00;102249.09;6227710;28;20049;-71
2023/05/25 02:03:32;;;;;;;16.50;6.65;;;;;;;10.35;100.00;102247.34;6213797;28;20046;-70
2023/05/25 02:06:35;;;;;;;17.08;6.80;;;;;;;10.34;100.00;102252.66;6228446;28;20045;-70
2023/05/25 02:09:38;;;;;;;13.35;6.65;;;;;;;10.34;100.00;102250.88;6227486;28;20355;-71
2023/05/25 02:12:39;;;;;;;13.95;5.38;;;;;;;10.40;100.00;102247.22;6227981;28;20046;-70
2023/05/25 02:15:41;;;;;;;14.40;6.38;;;;;;;10.46;100.00;102261.97;6228167;28;20048;-70
2023/05/25 02:18:43;;;;;;;12.18;5.65;;;;;;;10.48;100.00;102261.00;6218276;28;20042;-70
2023/05/25 02:21:44;;;;;;;14.88;6.25;;;;;;;10.37;100.00;102258.69;6227968;28;20038;-70
2023/05/25 02:24:47;;;;;;;16.02;6.30;;;;;;;10.40;100.00;102260.38;6227967;28;20050;-70
2023/05/25 02:27:50;;;;;;;12.85;5.38;;;;;;;10.47;100.00;102259.28;6221364;28;20100;-70
2023/05/25 02:30:52;;;;;;;14.15;5.43;;;;;;;10.34;100.00;102263.16;6219281;28;20132;-70
2023/05/25 02:33:53;;;;;;;10.32;5.00;;;;;;;10.24;100.00;102244.19;6227698;28;20129;-70
2023/05/25 02:36:54;;;;;;;10.85;5.78;;;;;;;10.25;100.00;102251.16;6227454;28;20053;-70
2023/05/25 02:39:57;;;;;;;11.90;5.53;;;;;;;10.23;100.00;102247.69;6227015;28;20049;-70
2023/05/25 02:42:58;;;;;;;12.30;5.00;;;;;;;10.24;100.00;102257.31;6227418;28;20049;-71
2023/05/25 02:46:00;;;;;;;8.95;4.63;;;;;;;10.21;100.00;102246.84;6227243;28;20057;-70
2023/05/25 02:49:01;;;;;;;8.80;4.65;;;;;;;10.26;100.00;102260.75;6218245;28;20061;-70
2023/05/25 02:52:03;;;;;;;11.70;4.93;;;;;;;10.28;100.00;102258.97;6227086;28;20052;-70
2023/05/25 02:55:08;;;;;;;16.85;6.45;;;;;;;10.26;100.00;102260.75;6227430;28;20058;-70
2023/05/25 02:58:10;;;;;;;10.25;4.95;;;;;;;10.28;100.00;102261.59;6218979;28;20517;-70
2023/05/25 03:01:17;;;;;;;15.57;5.40;;;;;;;10.23;100.00;102271.34;6209266;28;20375;-70
2023/05/25 03:04:18;;;;;;;16.80;5.57;;;;;;;10.23;100.00;102270.47;6195158;28;20041;-70
2023/05/25 03:07:20;;;;;;;18.65;5.35;;;;;;;10.31;100.00;102273.75;6206919;28;20083;-71
2023/05/25 03:10:22;;;;;;;11.00;5.72;;;;;;;10.18;100.00;102269.75;6204807;28;20045;-70
2023/05/25 03:13:24;;;;;;;13.05;4.50;;;;;;;10.18;100.00;102272.38;6204933;28;20033;-70
2023/05/25 03:16:26;;;;;;;13.45;6.30;;;;;;;10.19;100.00;102272.31;6198292;28;20042;-70
2023/05/25 03:19:27;;;;;;;12.48;5.63;;;;;;;10.15;100.00;102275.94;6192429;28;20121;-70
2023/05/25 03:22:28;;;;;;;10.13;5.40;;;;;;;10.13;100.00;102275.97;6203591;28;20044;-70
2023/05/25 03:25:31;;;;;;;11.45;4.57;;;;;;;10.10;100.00;102277.81;6202440;28;20061;-70
2023/05/25 03:28:32;;;;;;;12.10;5.22;;;;;;;10.13;100.00;102281.22;6182424;28;20049;-70
2023/05/25 03:31:34;;;;;;;12.23;5.20;;;;;;;10.12;100.00;102278.63;6204257;28;20206;-70
2023/05/25 03:34:36;;;;;;;16.58;6.63;;;;;;;10.11;100.00;102283.03;6193691;28;20080;-70
2023/05/25 03:37:37;;;;;;;10.43;5.68;;;;;;;10.13;100.00;102283.84;6203697;28;20526;-70
2023/05/25 03:40:40;;;;;;;15.68;6.22;;;;;;;10.15;100.00;102282.03;6204281;28;20486;-70
2023/05/25 03:43:41;;;;;;;15.57;6.32;;;;;;;10.13;100.00;102285.63;6201913;28;20057;-70
2023/05/25 03:46:42;;;;;;;14.68;5.90;;;;;;;10.12;100.00;102286.50;6198581;28;20050;-70
2023/05/25 03:49:44;;;;;;;13.02;5.03;;;;;;;10.09;100.00;102289.22;6203298;28;20057;-70
2023/05/25 03:52:45;;;;;;;11.43;5.95;;;;;;;10.14;100.00;102288.19;6199270;28;20050;-70
2023/05/25 03:55:50;;;;;;;9.75;4.22;;;;;;;10.16;100.00;102289.00;6203441;28;20133;-70
2023/05/25 03:58:52;;;;;;;12.00;5.28;;;;;;;10.19;100.00;102287.22;6182163;28;20646;-71
2023/05/25 04:01:53;;;;;;;9.93;5.38;;;;;;;10.13;100.00;102280.38;6194407;28;20465;-70
2023/05/25 04:04:55;;;;;;;7.40;4.75;;;;;;;10.17;100.00;102284.63;6203223;28;20576;-70
2023/05/25 04:07:58;;;;;;;14.00;5.43;;;;;;;10.20;100.00;102289.78;6198115;28;20053;-70
2023/05/25 04:11:00;;;;;;;10.65;5.72;;;;;;;10.16;100.00;102286.38;6198724;28;20078;-70
2023/05/25 04:14:02;;;;;;;10.57;5.15;;;;;;;10.26;100.00;102304.56;6181559;28;20056;-70
2023/05/25 04:17:03;;;;;;;13.90;5.05;;;;;;;10.26;100.00;102299.31;6188198;28;20080;-70
2023/05/25 04:20:07;;;;;;;10.88;5.70;;;;;;;10.25;100.00;102308.09;6193046;28;20046;-70
2023/05/25 04:23:08;;;;;;;10.63;5.00;;;;;;;10.31;100.00;102302.66;6184234;28;20143;-70
2023/05/25 04:26:12;;;;;;;12.98;4.93;;;;;;;10.26;100.00;102307.19;6186162;28;20068;-70
2023/05/25 04:29:13;;;;;;;16.40;6.70;;;;;;;10.24;100.00;102301.97;6186954;28;20120;-71
2023/05/25 04:32:16;;;;;;;7.88;4.57;;;;;;;10.27;100.00;102301.91;6190066;28;20494;-70
2023/05/25 04:35:19;;;;;;;15.15;5.60;;;;;;;10.30;100.00;102301.81;6183886;28;20042;-70
2023/05/25 04:38:21;;;;;;;8.98;5.10;;;;;;;10.33;100.00;102301.72;6185147;28;20046;-71
2023/05/25 04:41:24;;;;;;;11.75;4.95;;;;;;;10.36;100.00;102304.28;6186639;28;20046;-70
2023/05/25 04:44:28;;;;;;;10.48;4.88;;;;;;;10.39;100.00;102304.19;6185912;28;20073;-70
2023/05/25 04:47:30;;;;;;;14.30;4.43;;;;;;;10.46;100.00;102315.41;6191161;28;20085;-70
2023/05/25 04:50:31;;;;;;;8.55;4.30;;;;;;;10.53;100.00;102314.31;6200434;28;20046;-70
2023/05/25 04:53:34;;;;;;;14.93;5.68;;;;;;;10.54;100.00;102321.31;6211816;28;20042;-70
2023/05/25 04:56:36;;;;;;;6.00;3.55;;;;;;;10.56;100.00;102316.00;6212782;28;20469;-70
2023/05/25 04:59:38;;;;;;;11.80;4.57;;;;;;;10.51;100.00;102329.28;6196683;28;20121;-70
2023/05/25 05:02:39;;;;;;;11.90;3.47;;;;;;;10.54;100.00;102329.19;6227098;28;20442;-70
2023/05/25 05:05:42;;;;;;;6.70;3.67;;;;;;;10.56;100.00;102332.63;6229976;28;20104;-70
2023/05/25 05:08:43;;;;;;;7.78;4.00;;;;;;;10.56;100.00;102335.25;6213608;28;20081;-70
2023/05/25 05:11:46;;;;;;;8.73;4.53;;;;;;;10.62;100.00;102336.84;6205155;28;20043;-70
2023/05/25 05:14:47;;;;;;;9.38;4.55;;;;;;;10.61;100.00;102335.13;6205351;28;20050;-70
2023/05/25 05:17:49;;;;;;;7.72;4.10;;;;;;;10.66;100.00;102339.34;6197129;28;20328;-70
2023/05/25 05:20:50;;;;;;;8.55;4.07;;;;;;;10.71;100.00;102341.84;6215028;28;20050;-70
2023/05/25 05:23:51;;;;;;;15.07;5.18;;;;;;;10.72;100.00;102340.97;6229123;28;20053;-70
2023/05/25 05:26:54;;;;;;;18.80;5.13;;;;;;;10.66;100.00;102349.88;6217382;28;20046;-71
2023/05/25 05:29:56;;;;;;;10.65;4.38;;;;;;;10.58;100.00;102346.63;6228325;28;20053;-70
2023/05/25 05:32:57;;;;;;;9.05;4.07;;;;;;;10.65;100.00;102350.78;6229184;28;20046;-70
2023/05/25 05:36:00;;;;;;;14.07;4.22;;;;;;;10.71;100.00;102355.00;6228951;28;20354;-70
2023/05/25 05:39:02;;;;;;;10.50;4.00;;;;;;;10.78;100.00;102355.72;6227971;28;20180;-70
2023/05/25 05:42:05;;;;;;;14.75;5.10;;;;;;;10.78;100.00;102355.72;6228991;28;20052;-70
2023/05/25 05:45:07;;;;;;;9.57;4.07;;;;;;;10.84;100.00;102366.91;6228618;28;20054;-70
2023/05/25 05:48:09;;;;;;;14.85;4.55;;;;;;;10.79;100.00;102366.16;6225214;28;20065;-70
2023/05/25 05:51:11;;;;;;;7.20;3.60;;;;;;;10.81;100.00;102369.63;6228025;28;20050;-70
2023/05/25 05:54:12;;;;;;;14.00;5.38;;;;;;;10.83;100.00;102375.69;6228613;28;20120;-70
2023/05/25 05:57:15;;;;;;;9.20;3.97;;;;;;;10.85;100.00;102373.88;6227507;28;20045;-70
2023/05/25 06:00:17;;;;;;;10.88;4.28;;;;;;;10.89;100.00;102372.88;6221222;28;20041;-71
2023/05/25 06:03:19;;;;;;;6.97;3.92;;;;;;;10.93;100.00;102376.31;6216979;28;20126;-70
2023/05/25 06:06:21;;;;;;;8.20;4.03;;;;;;;10.91;100.00;102384.25;6208425;28;20052;-70
2023/05/25 06:09:22;;;;;;;9.30;3.53;;;;;;;10.89;100.00;102374.66;6227557;28;20053;-70
2023/05/25 06:12:25;;;;;;;10.57;3.80;;;;;;;10.93;100.00;102385.03;6228254;28;20045;-70
2023/05/25 06:15:26;;;;;;;8.45;4.30;;;;;;;10.92;100.00;102380.69;6228171;28;20053;-71
2023/05/25 06:18:28;;;;;;;10.50;3.95;;;;;;;10.87;100.00;102387.88;6222892;28;20042;-70
2023/05/25 06:21:29;;;;;;;11.65;4.50;;;;;;;10.90;100.00;102381.63;6225209;28;20046;-70
2023/05/25 06:24:30;;;;;;;12.98;4.45;;;;;;;10.94;100.00;102380.66;6227798;28;20054;-70
2023/05/25 06:27:33;;;;;;;13.05;4.55;;;;;;;10.94;100.00;102383.28;6228023;28;20049;-70
2023/05/25 06:30:34;;;;;;;14.35;5.50;;;;;;;10.97;100.00;102391.09;6226934;28;20046;-70
2023/05/25 06:33:36;;;;;;;11.60;4.63;;;;;;;10.98;100.00;102395.44;6227582;28;20046;-70
2023/05/25 06:36:38;;;;;;;9.13;4.38;;;;;;;11.03;100.00;102398.78;6227485;28;20046;-71
2023/05/25 06:39:41;;;;;;;9.40;4.38;;;;;;;11.06;100.00;102392.59;6227030;28;20050;-71
2023/05/25 06:42:44;;;;;;;16.30;4.10;;;;;;;11.14;100.00;102391.47;6227196;28;20041;-71
2023/05/25 06:45:46;;;;;;;8.77;4.75;;;;;;;11.10;100.00;102395.09;6227588;28;20050;-71
2023/05/25 06:48:47;;;;;;;9.77;3.72;;;;;;;11.12;100.00;102397.66;6220135;28;20061;-70
2023/05/25 06:51:49;;;;;;;8.68;4.53;;;;;;;11.12;100.00;102401.16;6227473;28;20045;-70
2023/05/25 06:54:51;;;;;;;7.93;3.70;;;;;;;11.22;100.00;102403.53;6227205;28;20383;-71
2023/05/25 06:57:53;;;;;;;18.10;4.80;;;;;;;11.28;100.00;102412.13;6223189;28;20358;-71
2023/05/25 07:00:55;;;;;;;8.48;3.38;;;;;;;11.30;100.00;102420.81;6226606;28;20438;-71
2023/05/25 07:03:56;;;;;;;10.40;3.42;;;;;;;11.27;100.00;102422.69;6218811;28;20046;-70
2023/05/25 07:06:57;;;;;;;10.18;3.30;;;;;;;11.24;100.00;102422.78;6227076;28;20050;-70
2023/05/25 07:09:59;;;;;;;5.43;2.60;;;;;;;11.25;100.00;102424.50;6226454;28;20050;-71
2023/05/25 07:13:02;;;;;;;5.53;2.85;;;;;;;11.19;100.00;102422.91;6225369;28;20049;-68
2023/05/25 07:16:03;;;;;;;8.40;3.10;;;;;;;11.21;100.00;102436.00;6204491;28;20057;-71
2023/05/25 07:19:04;;;;;;;14.35;3.20;;;;;;;11.24;100.00;102438.56;6223028;28;20081;-70
2023/05/25 07:22:06;;;;;;;7.93;3.40;;;;;;;11.28;100.00;102440.22;6226640;28;20184;-70
2023/05/25 07:25:08;;;;;;;6.78;2.78;;;;;;;11.30;100.00;102441.88;6226491;28;20046;-70
2023/05/25 07:28:11;;;;;;;6.95;2.85;;;;;;;11.38;100.00;102441.66;6208702;28;20054;-71
2023/05/25 07:31:12;;;;;;;11.00;3.85;;;;;;;11.42;100.00;102441.53;6203315;28;20046;-71
2023/05/25 07:34:14;;;;;;;13.20;2.95;;;;;;;11.54;100.00;102444.72;6205719;28;20038;-71
2023/05/25 07:37:15;;;;;;;5.30;2.40;;;;;;;11.61;100.00;102440.97;6206447;28;20049;-71
2023/05/25 07:40:16;;;;;;;10.82;2.85;;;;;;;11.71;100.00;102439.75;6225689;28;20046;-71
2023/05/25 07:43:19;;;;;;;4.95;2.28;;;;;;;11.71;100.00;102433.63;6217868;28;20045;-71
2023/05/25 07:46:24;;;;;;;4.20;2.17;;;;;;;11.75;100.00;102435.28;6209459;28;20087;-69
2023/05/25 07:49:26;;;;;;;7.78;2.72;;;;;;;11.75;100.00;102445.81;6212447;28;20594;-69
2023/05/25 07:52:27;;;;;;;8.35;2.60;;;;;;;11.76;100.00;102450.16;6222790;28;20131;-70
2023/05/25 07:55:28;;;;;;;6.95;2.70;;;;;;;11.74;100.00;102449.34;6225978;28;20053;-70
2023/05/25 07:58:31;;;;;;;9.23;2.53;;;;;;;11.74;100.00;102450.22;6225449;28;20455;-71
2023/05/25 08:01:34;;;;;;;6.15;2.45;;;;;;;11.79;100.00;102448.28;6215294;28;20323;-71
2023/05/25 08:04:36;;;;;;;6.30;2.15;;;;;;;11.77;100.00;102446.63;6200995;28;20435;-72
2023/05/25 08:07:37;;;;;;;6.00;2.53;;;;;;;11.78;100.00;102458.88;6207582;28;20053;-72
2023/05/25 08:10:38;;;;;;;8.57;2.88;;;;;;;11.70;100.00;102453.84;6199559;28;20434;-71
2023/05/25 08:13:41;;;;;;;10.88;2.60;;;;;;;11.71;100.00;102467.88;6208099;28;20042;-71
2023/05/25 08:16:42;;;;;;;10.13;2.83;;;;;;;11.63;100.00;102457.59;6225494;28;20046;-71
2023/05/25 08:19:44;;;;;;;4.53;2.40;;;;;;;11.66;100.00;102457.47;6215713;28;20058;-71
2023/05/25 08:22:45;;;;;;;8.55;2.28;;;;;;;11.74;100.00;102458.13;6224729;28;20139;-72
2023/05/25 08:25:47;;;;;;;11.20;2.65;;;;;;;11.74;100.00;102468.66;6225447;28;20350;-71
2023/05/25 08:28:49;;;;;;;8.70;2.80;;;;;;;11.82;100.00;102461.41;6224717;28;20344;-72
2023/05/25 08:31:51;;;;;;;7.38;2.30;;;;;;;11.83;100.00;102460.50;6209389;28;20335;-71
2023/05/25 08:34:52;;;;;;;6.07;2.25;;;;;;;11.87;100.00;102456.88;6219555;28;20359;-71
2023/05/25 08:37:53;;;;;;;6.78;2.17;;;;;;;11.89;100.00;102451.53;6216050;28;20056;-71
2023/05/25 08:41:04;;;;;;;5.65;2.33;;;;;;;12.07;100.00;102455.34;6224854;28;20069;-72
2023/05/25 08:44:07;;;;;;;7.03;2.53;;;;;;;12.12;100.00;102458.72;6225246;28;20105;-71
2023/05/25 08:47:14;;;;;;;5.32;2.08;;;;;;;12.19;100.00;102461.09;6225308;28;20082;-71
2023/05/25 08:50:16;;;;;;;5.88;2.00;;;;;;;12.24;100.00;102468.88;6216302;28;20048;-72
2023/05/25 08:53:21;;;;;;;5.18;2.45;;;;;;;12.25;100.00;102472.34;6214544;28;20038;-72
2023/05/25 08:56:26;;;;;;;6.72;1.85;;;;;;;12.26;100.00;102463.53;6213197;28;20053;-71
2023/05/25 08:59:37;;;;;;;6.25;1.80;;;;;;;12.43;100.00;102474.38;6224669;28;20129;-72
2023/05/25 09:02:41;;;;;;;5.63;2.13;;;;;;;12.40;100.00;102480.63;6225157;28;20053;-71
2023/05/25 09:05:43;;;;;;;8.93;2.33;;;;;;;12.34;100.00;102474.69;6225337;28;20045;-72
2023/05/25 09:08:45;;;;;;;7.05;2.42;;;;;;;12.28;100.00;102475.75;6216387;28;20073;-72
2023/05/25 09:11:47;;;;;;;6.15;1.58;;;;;;;12.29;100.00;102488.03;6225873;28;20054;-72
2023/05/25 09:14:50;;;;;;;4.32;1.80;;;;;;;12.25;100.00;102480.25;6211159;28;20042;-71
2023/05/25 09:17:51;;;;;;;3.92;1.88;;;;;;;12.31;100.00;102480.94;6213568;28;20069;-71
2023/05/25 09:20:53;;;;;;;6.50;2.55;;;;;;;12.34;100.00;102483.47;6215359;28;20050;-71
2023/05/25 09:23:55;;;;;;;8.30;1.88;;;;;;;12.39;100.00;102478.88;6205569;28;20189;-71
2023/05/25 09:26:56;;;;;;;6.68;2.10;;;;;;;12.49;100.00;102490.03;6229383;28;20350;-71
2023/05/25 09:30:00;;;;;;;4.85;1.67;;;;;;;12.54;100.00;102481.97;6228413;28;20049;-70
2023/05/25 09:33:11;;;;;;;6.20;1.77;;;;;;;12.68;100.00;102488.47;6229268;28;20054;-70
2023/05/25 09:36:14;;;;;;;6.47;1.90;;;;;;;12.73;100.00;102487.47;6218697;28;20053;-71
2023/05/25 09:39:15;;;;;;;6.32;2.08;;;;;;;12.77;100.00;102478.53;6228551;28;20041;-71
2023/05/25 09:42:17;;;;;;;5.55;1.90;;;;;;;12.79;100.00;102484.59;6229026;28;20080;-71
2023/05/25 09:45:19;;;;;;;9.23;2.00;;;;;;;12.79;100.00;102487.25;6217250;28;20451;-71
2023/05/25 09:48:21;;;;;;;3.28;1.33;;;;;;;12.85;100.00;102481.72;6206208;28;20434;-71
2023/05/25 09:51:23;;;;;;;5.88;2.13;;;;;;;12.92;100.00;102485.91;6216350;28;20046;-72
2023/05/25 09:54:25;;;;;;;7.68;2.40;;;;;;;12.99;100.00;102497.09;6228437;28;20042;-71
2023/05/25 09:57:27;;;;;;;4.65;1.75;;;;;;;12.96;100.00;102503.34;6228830;28;20455;-72
2023/05/25 10:00:30;;;;;;;5.28;1.80;;;;;;;12.99;100.00;102502.34;6227690;28;20042;-72
2023/05/25 10:03:32;;;;;;;9.00;1.83;;;;;;;12.95;100.00;102497.22;6225198;28;20351;-71
2023/05/25 10:06:33;;;;;;;6.25;2.28;;;;;;;12.93;100.00;102496.38;6213379;28;20053;-71
2023/05/25 10:09:39;;;;;;;7.13;1.88;;;;;;;13.04;100.00;102498.66;6226650;28;20053;-71
2023/05/25 10:12:41;;;;;;;5.53;2.00;;;;;;;13.10;100.00;102503.72;6213829;28;20053;-71
2023/05/25 10:15:47;;;;;;;9.60;2.15;;;;;;;13.12;100.00;102506.28;6217728;28;20443;-69
2023/05/25 10:18:54;;;;;;;4.07;1.65;;;;;;;13.20;100.00;102512.16;6217159;28;20436;-71
2023/05/25 10:22:02;;;;;;;9.65;1.85;;;;;;;13.16;100.00;102506.13;6212134;28;20049;-70
2023/05/25 10:25:09;;;;;;;3.38;1.40;;;;;;;13.28;100.00;102510.16;6227904;28;20050;-71
2023/05/25 10:28:17;;;;;;;11.27;3.08;;;;;;;13.40;100.00;102508.84;6228004;28;20057;-72
2023/05/25 10:31:21;;;;;;;4.63;2.22;;;;;;;13.48;100.00;102505.91;6223958;28;20068;-71
2023/05/25 10:34:22;;;;;;;2.95;1.77;;;;;;;13.54;100.00;102516.25;6227536;28;20049;-72
2023/05/25 10:37:26;;;;;;;5.53;2.38;;;;;;;13.60;100.00;102508.09;6225219;28;20378;-71
2023/05/25 10:40:27;;;;;;;6.32;2.10;;;;;;;13.61;100.00;102504.53;6226799;28;20050;-72
2023/05/25 10:43:29;;;;;;;5.45;2.10;;;;;;;13.65;100.00;102504.34;6218962;28;20453;-71
2023/05/25 10:46:31;;;;;;;5.13;1.92;;;;;;;13.69;100.00;102505.09;6220932;28;20052;-72
2023/05/25 10:49:34;;;;;;;5.43;2.35;;;;;;;13.64;100.00;102497.34;6205108;28;20058;-72
2023/05/25 10:52:35;;;;;;;8.88;2.28;;;;;;;13.69;100.00;102490.09;6217370;28;20081;-71
2023/05/25 10:55:48;;;;;;;9.30;2.20;;;;;;;13.66;100.00;102492.84;6221274;28;20049;-71
2023/05/25 10:58:49;;;;;;;9.35;2.22;;;;;;;13.62;100.00;102493.88;6219733;28;20061;-71
2023/05/25 11:01:53;;;;;;;7.47;2.25;;;;;;;13.68;100.00;102485.75;6194642;28;20053;-72
2023/05/25 11:05:27;;;;;;;4.82;2.50;;;;;;;13.93;100.00;102476.84;6227088;28;20145;-72
2023/05/25 11:08:48;;;;;;;6.13;2.05;;;;;;;14.06;100.00;102483.38;6227132;28;20053;-73
2023/05/25 11:12:04;;;;;;;11.27;2.47;;;;;;;14.11;100.00;102480.53;6220842;28;20049;-72
2023/05/25 11:15:11;;;;;;;5.50;2.20;;;;;;;14.02;100.00;102488.84;6225574;28;20050;-68
2023/05/25 11:18:15;;;;;;;4.45;1.98;;;;;;;14.01;100.00;102484.50;6226608;28;20442;-72
2023/05/25 11:21:22;;;;;;;4.93;2.20;;;;;;;14.11;100.00;102488.47;6226108;28;20053;-72
2023/05/25 11:24:24;;;;;;;11.48;2.58;;;;;;;14.40;100.00;102488.16;6212232;28;20038;-73
2023/05/25 11:27:28;;;;;;;5.95;2.05;;;;;;;14.67;100.00;102480.88;6202447;28;20042;-73
2023/05/25 11:30:30;;;;;;;7.63;2.03;;;;;;;14.70;100.00;102480.72;6201431;28;20042;-73
2023/05/25 11:33:33;;;;;;;8.77;2.30;;;;;;;14.62;100.00;102476.69;6202206;28;20054;-73
2023/05/25 11:36:35;;;;;;;7.55;2.53;;;;;;;14.58;100.00;102475.97;6214221;28;20481;-73
2023/05/25 11:39:37;;;;;;;7.10;3.30;;;;;;;14.65;100.00;102476.56;6225874;28;20042;-74
2023/05/25 11:42:41;;;;;;;9.95;4.82;;;;;;;14.64;100.00;102483.66;6217931;28;20046;-72
2023/05/25 11:45:44;;;;;;;11.98;3.70;;;;;;;14.60;100.00;102475.91;6226201;28;20148;-73
2023/05/25 11:48:51;;;;;;;10.15;4.53;;;;;;;14.55;100.00;102478.75;6212196;28;20514;-72
2023/05/25 11:51:53;;;;;;;13.52;3.40;;;;;;;14.50;100.00;102478.09;6201724;28;20185;-73
2023/05/25 11:54:54;;;;;;;11.77;3.78;;;;;;;14.62;100.00;102468.75;6201674;28;20046;-73
2023/05/25 11:57:57;;;;;;;12.40;4.28;;;;;;;14.70;100.00;102471.94;6202194;28;20362;-73
2023/05/25 12:01:13;;;;;;;8.82;3.67;;;;;;;14.90;100.00;102482.53;6225284;28;20077;-72
2023/05/25 12:04:15;;;;;;;16.20;4.75;;;;;;;14.94;100.00;102470.88;6225707;28;20169;-72
2023/05/25 12:07:17;;;;;;;16.98;4.47;;;;;;;14.88;100.00;102471.13;6222661;28;20053;-73
2023/05/25 12:10:18;;;;;;;11.40;3.10;;;;;;;14.86;100.00;102473.00;6224735;28;20062;-73
2023/05/25 12:13:20;;;;;;;9.43;3.63;;;;;;;14.75;100.00;102467.28;6218064;28;20099;-72
2023/05/25 12:16:21;;;;;;;8.45;3.83;;;;;;;15.03;100.00;102468.72;6221413;28;20053;-72
2023/05/25 12:19:24;;;;;;;7.15;3.15;;;;;;;14.98;100.00;102466.28;6225010;28;20038;-72
2023/05/25 12:22:27;;;;;;;11.23;3.58;;;;;;;14.93;100.00;102463.00;6225295;28;20053;-73
2023/05/25 12:25:28;;;;;;;13.55;3.45;;;;;;;14.92;100.00;102456.84;6225612;28;20410;-73
2023/05/25 12:28:29;;;;;;;14.55;4.07;;;;;;;15.26;100.00;102449.16;6225059;28;20053;-70
2023/05/25 12:31:32;;;;;;;15.77;3.33;;;;;;;15.49;100.00;102448.97;6225383;28;20393;-70
2023/05/25 12:34:35;;;;;;;20.23;5.60;;;;;;;15.47;100.00;102443.72;6217381;28;20450;-69
2023/05/25 12:37:37;;;;;;;11.65;3.20;;;;;;;15.46;100.00;102443.81;6219716;28;20350;-70
2023/05/25 12:40:38;;;;;;;16.13;3.90;;;;;;;15.28;100.00;102442.88;6216060;28;20064;-71
2023/05/25 12:43:42;;;;;;;33.03;6.05;;;;;;;15.23;100.00;102436.94;6216961;28;20050;-70
2023/05/25 12:46:44;;;;;;;10.05;2.63;;;;;;;15.29;100.00;102428.69;6214333;28;20050;-69
2023/05/25 12:49:50;;;;;;;8.43;2.90;;;;;;;15.48;100.00;102429.53;6222742;28;20062;-70
2023/05/25 12:52:51;;;;;;;7.40;3.03;;;;;;;15.63;100.00;102421.84;6230353;28;20061;-70
2023/05/25 12:56:00;;;;;;;6.18;2.65;;;;;;;15.68;100.00;102423.34;6224202;28;20045;-70
2023/05/25 12:59:13;;;;;;;;;;;;;;;15.87;100.00;102430.41;6230054;28;20061;-70
2023/05/25 13:02:15;;;;;;;12.60;3.22;;;;;;;16.03;100.00;102426.06;6226501;28;19929;-71
2023/05/25 13:05:19;;;;;;;8.73;2.17;;;;;;;15.98;100.00;102428.94;6205561;28;20042;-70
2023/05/25 13:08:21;;;;;;;8.30;2.78;;;;;;;15.98;100.00;102426.28;6204998;28;20049;-71
2023/05/25 13:11:22;;;;;;;11.25;3.10;;;;;;;16.16;100.00;102426.31;6209414;28;20176;-71
2023/05/25 13:14:25;;;;;;;11.77;2.80;;;;;;;16.69;100.00;102434.19;6203750;28;20042;-71
2023/05/25 13:17:26;;;;;;;6.93;2.17;;;;;;;16.88;100.00;102427.94;6226571;28;20068;-71
2023/05/25 13:20:31;;;;;;;5.55;2.30;;;;;;;16.75;100.00;102433.03;6228758;28;20046;-70
2023/05/25 13:23:32;;;;;;;11.38;2.45;;;;;;;17.02;100.00;102420.09;6227729;28;20116;-70
2023/05/25 13:26:33;;;;;;;7.22;1.90;;;;;;;17.43;100.00;102411.66;6208699;28;20052;-71
2023/05/25 13:29:35;;;;;;;7.05;2.28;;;;;;;17.67;100.00;102422.75;6203320;28;20455;-71
2023/05/25 13:32:36;;;;;;;13.77;3.03;;;;;;;17.60;100.00;102410.75;6222049;28;20053;-72
2023/05/25 13:35:56;;;;;;;7.60;2.15;;;;;;;17.60;100.00;102414.25;6227602;28;20038;-71
2023/05/25 13:38:58;;;;;;;12.65;4.13;;;;;;;17.28;100.00;102408.06;6197777;28;20060;-71
2023/05/25 13:41:59;;;;;;;11.43;2.60;;;;;;;17.09;100.00;102407.38;6206222;28;20046;-71
2023/05/25 13:45:00;;;;;;;9.15;2.50;;;;;;;17.33;100.00;102398.03;6203870;28;20089;-71
2023/05/25 13:48:02;;;;;;;10.25;2.53;;;;;;;17.80;100.00;102399.84;6201847;28;20058;-71
2023/05/25 13:51:04;;;;;;;9.70;2.55;;;;;;;17.96;100.00;102398.03;6194172;28;20054;-71
2023/05/25 13:54:06;;;;;;;12.25;2.92;;;;;;;17.89;100.00;102394.00;6199667;28;20054;-70
2023/05/25 13:57:07;;;;;;;17.38;2.58;;;;;;;17.92;100.00;102400.94;6211237;28;20054;-71